Camarillo, CA (93012)

1:48 PM PST on February 09, 2016 (GMT -0800)
Camarillo Springs | | Change Station
CLOSE
Current Station
Personal Weather Station
Location: Camarillo, CA
Elevation: 236 ft
Nearby Weather Stations

Elev 236 ft 34.20 °N, 118.98 °W | Updated 11 minutes ago

Clear
Clear
90.0 °F
Feels Like 86 °F
N
2.7
Wind Variable Wind from ESE

Today
High -- | Low -- °F
--% Chance of Precip.
Yesterday
High -- | Low -- °F
Precip. -- in
Pressure 30.10 in
Visibility 10.0 miles
Clouds Clear
Heat Index 86 °F
Dew Point 28 °F
Humidity 11%
Rainfall 0.00 in
Snow Depth Not available.
6:47 AM 5:33 PM
New Moon, 2% visible
METAR KCMA 092055Z 06015KT 10SM CLR 32/M04 A3008 RMK AO2 SLP193 T03221044 58027
Pressure 30.10 in
Visibility 10.0 miles
Clouds Clear
Heat Index 86 °F
Dew Point 28 °F
Humidity 11%
Rainfall 0.00 in
Snow Depth Not available.
6:47 AM 5:33 PM
New Moon, 2% visible
METAR KCMA 092055Z 06015KT 10SM CLR 32/M04 A3008 RMK AO2 SLP193 T03221044 58027

10-Day Weather Forecast

Almanac

Astronomy

Feb. 09, 2016 Rise Set
Actual Time
Civil Twilight
Nautical Twilight
Astronomical Twilight
Moon
Length of Visible Light
Length of Day
Tomorrow will be .
, % of the Moon is Illuminated

Today's Extremes

State Highs State Lows

Community

WunderPhotos

Upload Photos

1,891,710 photos uploaded!

WunderBlog® & News

Nearby

Air Quality

  Air Quality AQ Index Pollutant
Not available.

Snow Depth

Station Depth Elevation

Earthquake Activity

City Distance Mag. Time & Date
Minimum magnitude displayed is 2.5.

Coastal Water Temperatures

Place Temperature

Stations

Nearby Weather Stations

Station Location Temp. Windchill Dew Point Humidity Wind Precip. Elev Updated Type
                   

Watches & Warnings

There are currently no watches in effect.